createdAt,value
2022-08-17T00:01:26.246Z,15.95
2022-08-17T00:03:54.727Z,15.35
2022-08-17T00:06:29.626Z,15.95
2022-08-17T00:08:59.282Z,17.40
2022-08-17T00:11:28.697Z,15.52
2022-08-17T00:13:59.730Z,17.15
2022-08-17T00:19:22.763Z,13.45
2022-08-17T00:22:33.948Z,13.98
2022-08-17T00:24:37.946Z,13.65
2022-08-17T00:27:04.345Z,16.02
2022-08-17T00:29:30.735Z,13.65
2022-08-17T00:31:57.114Z,17.95
2022-08-17T00:34:25.203Z,12.63
2022-08-17T00:36:54.437Z,16.58
2022-08-17T00:39:20.840Z,16.38
2022-08-17T00:41:47.604Z,13.00
2022-08-17T00:44:14.576Z,17.92
2022-08-17T00:46:43.606Z,16.05
2022-08-17T00:49:12.783Z,17.17
2022-08-17T00:51:50.042Z,16.58
2022-08-17T00:54:22.801Z,17.70
2022-08-17T00:56:55.048Z,19.40
2022-08-17T00:59:25.472Z,19.65
2022-08-17T01:01:52.685Z,18.38
2022-08-17T01:04:22.306Z,16.05
2022-08-17T01:06:50.086Z,14.90
2022-08-17T01:09:17.996Z,17.27
2022-08-17T01:11:46.218Z,20.15
2022-08-17T01:14:13.225Z,19.10
2022-08-17T01:16:39.797Z,17.60
2022-08-17T01:19:22.511Z,17.25
2022-08-17T01:22:03.951Z,21.65
2022-08-17T01:24:31.178Z,19.30
2022-08-17T01:27:00.347Z,18.27
2022-08-17T01:29:30.696Z,18.38
2022-08-17T01:32:00.819Z,20.23
2022-08-17T01:34:42.387Z,15.95
2022-08-17T01:37:12.496Z,18.58
2022-08-17T01:39:52.291Z,17.30
2022-08-17T01:42:34.543Z,17.02
2022-08-17T01:45:09.592Z,19.38
2022-08-17T01:47:37.301Z,21.45
2022-08-17T01:50:14.512Z,17.63
2022-08-17T01:52:42.387Z,20.05
2022-08-17T01:55:09.921Z,23.75
2022-08-17T01:57:36.367Z,18.73
2022-08-17T02:00:06.573Z,17.83
2022-08-17T02:02:33.129Z,22.03
2022-08-17T02:04:59.778Z,21.10
2022-08-17T02:07:27.060Z,21.17
2022-08-17T02:09:53.990Z,17.30
2022-08-17T02:12:37.900Z,20.13
2022-08-17T02:15:08.408Z,17.00
2022-08-17T02:17:35.063Z,17.85
2022-08-17T02:20:01.640Z,18.02
2022-08-17T02:22:29.001Z,21.58
2022-08-17T02:24:58.356Z,20.30
2022-08-17T02:27:27.900Z,19.35
2022-08-17T02:29:54.340Z,19.17
2022-08-17T02:32:27.428Z,17.08
2022-08-17T02:34:55.505Z,21.88
2022-08-17T02:37:21.951Z,23.65
2022-08-17T02:39:48.383Z,19.33
2022-08-17T02:42:15.442Z,22.52
2022-08-17T02:44:42.284Z,20.85
2022-08-17T02:47:10.235Z,17.65
2022-08-17T02:49:37.161Z,22.25
2022-08-17T02:52:05.666Z,20.00
2022-08-17T02:54:39.196Z,22.25
2022-08-17T02:57:09.801Z,22.70
2022-08-17T02:59:36.412Z,22.13
2022-08-17T03:02:04.173Z,23.35
2022-08-17T03:04:31.164Z,20.58
2022-08-17T03:07:01.555Z,21.08
2022-08-17T03:09:27.995Z,23.50
2022-08-17T03:11:55.886Z,20.13
2022-08-17T03:14:26.123Z,21.63
2022-08-17T03:16:53.003Z,24.15
2022-08-17T03:19:19.425Z,23.77
2022-08-17T03:21:45.834Z,24.63
2022-08-17T03:24:12.987Z,22.25
2022-08-17T03:26:39.466Z,26.17
2022-08-17T03:29:05.903Z,24.27
2022-08-17T03:31:32.298Z,24.88
2022-08-17T03:34:00.898Z,24.75
2022-08-17T03:36:27.378Z,20.95
2022-08-17T03:38:53.846Z,26.50
2022-08-17T03:41:21.299Z,22.10
2022-08-17T03:43:47.708Z,21.38
2022-08-17T03:46:34.984Z,23.65
2022-08-17T03:49:23.319Z,29.60
2022-08-17T03:52:08.807Z,22.75
2022-08-17T03:54:53.683Z,25.70
2022-08-17T03:57:20.301Z,24.52
2022-08-17T03:59:47.653Z,23.58
2022-08-17T04:02:20.756Z,25.67
2022-08-17T04:04:50.664Z,25.35
2022-08-17T04:07:18.306Z,29.50
2022-08-17T04:09:44.872Z,27.85
2022-08-17T04:12:11.401Z,26.52
2022-08-17T04:14:53.124Z,26.40
2022-08-17T04:17:26.773Z,28.10
2022-08-17T04:19:54.311Z,23.23
2022-08-17T04:22:32.897Z,27.42
2022-08-17T04:25:18.887Z,25.63
2022-08-17T04:27:45.340Z,25.90
2022-08-17T04:30:12.445Z,29.33
2022-08-17T04:33:19.221Z,26.65
2022-08-17T04:35:48.938Z,24.98
2022-08-17T04:38:18.687Z,27.25
2022-08-17T04:41:04.430Z,27.30
2022-08-17T04:43:33.157Z,29.98
2022-08-17T04:46:02.013Z,30.10
2022-08-17T04:48:36.263Z,32.08
2022-08-17T04:51:16.463Z,29.60
2022-08-17T04:53:46.535Z,32.13
2022-08-17T04:56:20.506Z,31.45
2022-08-17T04:58:50.119Z,28.65
2022-08-17T05:01:23.953Z,28.33
2022-08-17T05:03:53.531Z,28.15
2022-08-17T05:06:20.233Z,28.38
2022-08-17T05:08:46.644Z,32.83
2022-08-17T05:11:13.056Z,29.27
2022-08-17T05:13:39.472Z,31.92
2022-08-17T05:16:06.344Z,28.85
2022-08-17T05:18:32.958Z,28.17
2022-08-17T05:20:59.544Z,32.60
2022-08-17T05:23:27.567Z,27.05
2022-08-17T05:26:11.045Z,24.35
2022-08-17T05:28:49.007Z,27.40
2022-08-17T05:31:17.457Z,30.80
2022-08-17T05:33:46.306Z,25.77
2022-08-17T05:36:42.985Z,23.95
2022-08-17T05:39:01.175Z,29.40
2022-08-17T05:41:27.582Z,23.63
2022-08-17T05:43:56.390Z,27.50
2022-08-17T05:46:34.978Z,24.63
2022-08-17T05:49:04.738Z,26.55
2022-08-17T05:51:33.810Z,28.75
2022-08-17T05:54:39.312Z,26.48
2022-08-17T05:57:11.494Z,27.35
2022-08-17T05:59:55.856Z,31.33
2022-08-17T06:02:35.040Z,25.75
2022-08-17T06:05:34.440Z,28.48
2022-08-17T06:08:25.301Z,30.05
2022-08-17T06:10:54.811Z,29.23
2022-08-17T06:13:59.424Z,27.50
2022-08-17T06:16:34.490Z,27.48
2022-08-17T06:19:14.536Z,25.63
2022-08-17T06:21:44.665Z,33.55
2022-08-17T06:24:29.095Z,26.27
2022-08-17T06:27:01.305Z,28.15
2022-08-17T06:29:51.634Z,28.38
2022-08-17T06:32:18.570Z,31.58
2022-08-17T06:34:46.175Z,32.30
2022-08-17T06:37:18.823Z,34.92
2022-08-17T06:39:55.374Z,29.42
2022-08-17T06:43:02.206Z,29.65
2022-08-17T06:45:50.499Z,26.95
2022-08-17T06:48:40.173Z,27.67
2022-08-17T06:51:19.675Z,27.25
2022-08-17T06:54:13.335Z,27.15
2022-08-17T06:56:53.547Z,29.33
2022-08-17T06:59:55.671Z,23.40
2022-08-17T07:02:55.508Z,23.98
2022-08-17T07:05:26.065Z,21.98
2022-08-17T07:08:13.972Z,27.20
2022-08-17T07:10:53.045Z,25.77
2022-08-17T07:13:19.383Z,41.65
2022-08-17T07:15:52.750Z,20.75
2022-08-17T07:18:24.569Z,24.65
2022-08-17T07:20:59.693Z,26.23
2022-08-17T07:23:38.124Z,23.48
2022-08-17T07:26:06.677Z,25.77
2022-08-17T07:28:35.517Z,23.38
2022-08-17T07:31:04.539Z,22.35
2022-08-17T07:33:33.262Z,26.85
2022-08-17T07:36:00.229Z,21.55
2022-08-17T07:38:29.575Z,24.48
2022-08-17T07:40:57.520Z,23.00
2022-08-17T07:43:26.456Z,20.50
2022-08-17T07:46:29.982Z,24.67
2022-08-17T07:49:03.006Z,22.23
2022-08-17T07:51:32.533Z,29.95
2022-08-17T07:54:14.101Z,21.73
2022-08-17T07:56:48.678Z,22.73
2022-08-17T07:59:33.519Z,27.25
2022-08-17T08:02:07.879Z,25.83
2022-08-17T08:04:59.687Z,25.80
2022-08-17T08:07:34.694Z,25.17
2022-08-17T08:10:07.317Z,26.60
2022-08-17T08:12:40.963Z,24.55
2022-08-17T08:15:08.630Z,22.38
2022-08-17T08:17:46.115Z,24.42
2022-08-17T08:20:34.845Z,24.13
2022-08-17T08:23:20.243Z,26.35
2022-08-17T08:25:56.674Z,25.02
2022-08-17T08:28:38.410Z,24.58
2022-08-17T08:31:18.976Z,22.50
2022-08-17T08:34:09.041Z,20.60
2022-08-17T08:37:36.644Z,20.67
2022-08-17T08:40:31.079Z,21.42
2022-08-17T08:43:20.250Z,23.88
2022-08-17T08:46:04.991Z,25.35
2022-08-17T08:49:17.103Z,23.35
2022-08-17T08:51:55.282Z,21.58
2022-08-17T08:54:58.329Z,20.67
2022-08-17T09:21:52.594Z,21.17
2022-08-17T09:24:35.529Z,23.13
2022-08-17T09:27:22.000Z,15.90
2022-08-17T09:29:56.251Z,18.52
2022-08-17T09:32:31.459Z,17.70
2022-08-17T09:35:03.977Z,25.67
2022-08-17T09:37:39.667Z,23.55
2022-08-17T09:40:22.240Z,21.63
2022-08-17T09:42:54.186Z,20.08
2022-08-17T09:45:31.849Z,19.70
2022-08-17T09:48:14.665Z,19.55
2022-08-17T09:51:12.957Z,21.23
2022-08-17T09:53:39.558Z,22.95
2022-08-17T09:56:24.232Z,21.95
2022-08-17T09:59:02.486Z,24.90
2022-08-17T10:01:37.600Z,20.80
2022-08-17T10:04:38.175Z,19.08
2022-08-17T10:07:21.151Z,22.98
2022-08-17T10:10:14.328Z,21.73
2022-08-17T10:13:04.105Z,23.92
2022-08-17T10:16:08.887Z,22.70
2022-08-17T10:18:42.953Z,22.95
2022-08-17T10:21:32.489Z,24.30
2022-08-17T10:24:33.698Z,25.55
2022-08-17T10:29:47.311Z,22.45
2022-08-17T10:32:25.238Z,23.60
2022-08-17T10:35:20.150Z,21.00
2022-08-17T10:37:59.159Z,24.45
2022-08-17T10:40:45.349Z,23.88
2022-08-17T10:43:20.613Z,23.92
2022-08-17T10:46:09.251Z,27.45
2022-08-17T10:48:42.559Z,23.67
2022-08-17T10:51:33.644Z,24.65
2022-08-17T10:56:50.876Z,22.55
2022-08-17T10:59:35.607Z,23.85
2022-08-17T11:02:04.905Z,22.77
2022-08-17T11:04:53.076Z,23.83
2022-08-17T11:07:37.621Z,21.85
2022-08-17T11:10:42.169Z,26.63
2022-08-17T11:13:43.506Z,27.90
2022-08-17T11:16:29.553Z,24.67
2022-08-17T11:19:49.897Z,23.90
2022-08-17T11:22:22.425Z,25.85
2022-08-17T11:24:52.349Z,30.23
2022-08-17T11:27:27.522Z,23.83
2022-08-17T11:30:02.562Z,24.70
2022-08-17T11:32:47.350Z,24.33
2022-08-17T11:35:20.187Z,26.13
2022-08-17T11:38:01.755Z,27.85
2022-08-17T11:41:07.198Z,29.95
2022-08-17T11:44:10.388Z,34.60
2022-08-17T11:47:01.524Z,34.33
2022-08-17T11:52:38.002Z,32.78
2022-08-17T11:55:33.940Z,37.55
2022-08-17T11:58:15.012Z,31.42
2022-08-17T12:00:49.197Z,31.02
2022-08-17T12:03:31.560Z,31.60
2022-08-17T12:06:10.838Z,29.00
2022-08-17T12:08:43.266Z,26.02
2022-08-17T12:11:55.575Z,30.13
2022-08-17T12:14:09.488Z,30.10
2022-08-17T12:16:38.270Z,32.22
2022-08-17T12:19:05.171Z,32.70
2022-08-17T12:21:51.171Z,30.20
2022-08-17T12:24:36.298Z,31.27
2022-08-17T12:27:05.752Z,30.52
2022-08-17T12:29:38.345Z,29.17
2022-08-17T12:32:07.040Z,31.90
2022-08-17T12:34:40.608Z,27.98
2022-08-17T12:37:15.216Z,27.92
2022-08-17T12:39:57.580Z,27.65
2022-08-17T12:42:30.987Z,32.17
2022-08-17T12:44:58.350Z,29.00
2022-08-17T12:47:25.931Z,31.85
2022-08-17T12:50:08.054Z,31.02
2022-08-17T12:52:58.525Z,29.75
2022-08-17T12:55:33.841Z,30.98
2022-08-17T12:58:01.840Z,32.58
2022-08-17T13:00:47.517Z,31.83
2022-08-17T13:03:21.674Z,27.33
2022-08-17T13:06:02.873Z,32.95
2022-08-17T13:08:32.964Z,31.83
2022-08-17T13:11:03.294Z,35.22
2022-08-17T13:13:36.006Z,34.15
2022-08-17T13:16:09.356Z,35.35
2022-08-17T13:18:43.565Z,35.97
2022-08-17T13:21:28.517Z,32.78
2022-08-17T13:24:04.191Z,30.50
2022-08-17T13:26:36.938Z,34.95
2022-08-17T13:29:16.423Z,31.60
2022-08-17T13:31:52.116Z,32.67
2022-08-17T13:34:29.107Z,33.28
2022-08-17T13:37:26.878Z,31.02
2022-08-17T13:40:07.278Z,31.52
2022-08-17T13:42:51.922Z,36.08
2022-08-17T13:45:36.647Z,32.92
2022-08-17T13:48:08.665Z,33.17
2022-08-17T13:50:45.588Z,32.65
2022-08-17T13:53:19.558Z,28.38
2022-08-17T13:55:53.701Z,32.22
2022-08-17T13:58:29.662Z,35.08
2022-08-17T14:00:56.350Z,32.88
2022-08-17T14:03:23.989Z,32.75
2022-08-17T14:05:52.250Z,35.55
2022-08-17T14:08:20.601Z,33.80
2022-08-17T14:10:57.321Z,31.95
2022-08-17T14:13:23.901Z,33.60
2022-08-17T14:15:55.581Z,35.15
2022-08-17T14:18:42.042Z,34.53
2022-08-17T14:21:09.951Z,33.55
2022-08-17T14:23:37.064Z,33.50
2022-08-17T14:26:04.082Z,31.58
2022-08-17T14:28:30.487Z,30.85
2022-08-17T14:30:59.796Z,30.27
2022-08-17T14:33:26.266Z,30.17
2022-08-17T14:35:53.570Z,30.77
2022-08-17T14:38:20.346Z,33.63
2022-08-17T14:40:47.860Z,31.00
2022-08-17T14:43:15.705Z,32.58
2022-08-17T14:45:42.845Z,31.98
2022-08-17T14:48:10.088Z,33.60
2022-08-17T14:50:40.560Z,30.17
2022-08-17T14:53:10.938Z,31.63
2022-08-17T14:55:39.707Z,32.40
2022-08-17T14:58:06.775Z,29.25
2022-08-17T15:00:33.999Z,33.28
2022-08-17T15:03:01.719Z,29.85
2022-08-17T15:05:31.871Z,28.77
2022-08-17T15:08:00.879Z,35.13
2022-08-17T15:10:29.183Z,29.17
2022-08-17T15:12:56.196Z,28.73
2022-08-17T15:15:23.160Z,27.08
2022-08-17T15:17:51.119Z,25.05
2022-08-17T15:20:20.698Z,26.50
2022-08-17T15:22:55.187Z,28.20
2022-08-17T15:25:22.313Z,25.73
2022-08-17T15:27:48.835Z,28.27
2022-08-17T15:30:15.690Z,27.40
2022-08-17T15:32:50.660Z,29.50
2022-08-17T15:35:27.958Z,28.73
2022-08-17T15:38:11.650Z,26.98
2022-08-17T15:40:41.757Z,31.25
2022-08-17T15:43:24.769Z,31.80
2022-08-17T15:46:01.914Z,28.25
2022-08-17T15:48:41.364Z,32.78
2022-08-17T15:51:12.994Z,31.48
2022-08-17T15:53:40.503Z,32.30
2022-08-17T15:56:07.463Z,29.17
2022-08-17T15:58:35.306Z,31.58
2022-08-17T16:01:15.023Z,31.63
2022-08-17T16:04:04.578Z,32.42
2022-08-17T16:06:31.957Z,31.67
2022-08-17T16:08:59.525Z,30.45
2022-08-17T16:11:26.350Z,32.28
2022-08-17T16:13:54.730Z,32.13
2022-08-17T16:16:23.438Z,30.67
2022-08-17T16:18:53.532Z,32.90
2022-08-17T16:21:29.528Z,34.85
2022-08-17T16:24:05.704Z,33.38
2022-08-17T16:26:40.415Z,31.48
2022-08-17T16:29:07.587Z,31.38
2022-08-17T16:31:35.858Z,32.40
2022-08-17T16:34:18.046Z,30.83
2022-08-17T16:36:54.640Z,33.38
2022-08-17T16:39:22.614Z,29.42
2022-08-17T16:41:50.189Z,32.95
2022-08-17T16:44:18.494Z,32.30
2022-08-17T16:46:46.312Z,34.47
2022-08-17T16:49:24.366Z,33.78
2022-08-17T16:52:01.571Z,33.95
2022-08-17T16:54:27.952Z,34.25
2022-08-17T16:56:54.358Z,35.80
2022-08-17T16:59:30.796Z,33.40
2022-08-17T17:02:15.412Z,31.00
2022-08-17T17:05:00.952Z,35.08
2022-08-17T17:07:40.105Z,33.45
2022-08-17T17:10:33.393Z,33.78
2022-08-17T17:13:04.014Z,33.58
2022-08-17T17:18:23.044Z,34.10
2022-08-17T17:20:56.644Z,35.45
2022-08-17T17:23:40.537Z,35.92
2022-08-17T17:26:39.858Z,36.00
2022-08-17T17:29:29.634Z,38.08
2022-08-17T17:32:25.746Z,36.72
2022-08-17T17:35:00.986Z,35.65
2022-08-17T17:37:33.750Z,35.75
2022-08-17T17:40:12.426Z,35.25
2022-08-17T17:42:41.793Z,33.25
2022-08-17T17:45:09.021Z,36.22
2022-08-17T17:47:36.566Z,35.03
2022-08-17T17:50:05.869Z,33.78
2022-08-17T17:52:40.913Z,35.30
2022-08-17T17:55:26.209Z,36.25
2022-08-17T17:57:58.649Z,37.88
2022-08-17T18:00:35.053Z,36.13
2022-08-17T18:03:24.327Z,39.60
2022-08-17T18:06:12.942Z,35.50
2022-08-17T18:09:09.014Z,38.10
2022-08-17T18:11:51.506Z,37.05
2022-08-17T18:15:03.709Z,37.75
2022-08-17T18:17:30.899Z,37.03
2022-08-17T18:19:57.380Z,40.33
2022-08-17T18:22:24.262Z,40.25
2022-08-17T18:24:56.352Z,39.47
2022-08-17T18:27:28.415Z,35.13
2022-08-17T18:29:57.992Z,42.13
2022-08-17T18:32:28.813Z,45.30
2022-08-17T18:34:57.281Z,42.05
2022-08-17T18:37:37.571Z,40.90
2022-08-17T18:40:16.185Z,42.80
2022-08-17T18:42:58.856Z,44.25
2022-08-17T18:45:38.077Z,43.15
2022-08-17T18:48:06.487Z,45.55
2022-08-17T18:50:44.518Z,43.33
2022-08-17T18:53:39.528Z,43.42
2022-08-17T18:56:27.023Z,42.67
2022-08-17T18:59:00.322Z,43.28
2022-08-17T19:01:59.865Z,46.13
2022-08-17T19:04:34.547Z,42.63
2022-08-17T19:07:07.445Z,46.83
2022-08-17T19:09:38.194Z,49.67
2022-08-17T19:12:10.097Z,45.05
2022-08-17T19:14:36.685Z,44.15
2022-08-17T19:17:14.071Z,47.88
2022-08-17T19:20:16.660Z,45.67
2022-08-17T19:23:01.454Z,46.25
2022-08-17T19:25:34.156Z,47.05
2022-08-17T19:28:21.481Z,45.90
2022-08-17T19:30:51.046Z,51.50
2022-08-17T19:33:17.610Z,48.80
2022-08-17T19:36:09.734Z,46.03
2022-08-17T19:39:04.607Z,52.00
2022-08-17T19:41:43.084Z,50.47
2022-08-17T19:44:51.741Z,46.45
2022-08-17T19:47:53.104Z,49.00
2022-08-17T19:50:43.616Z,48.60
2022-08-17T19:54:04.517Z,45.65
2022-08-17T19:56:29.363Z,47.15
2022-08-17T19:59:10.186Z,49.40
2022-08-17T20:01:46.708Z,45.70
2022-08-17T20:04:38.942Z,49.35
2022-08-17T20:07:30.041Z,45.20
2022-08-17T20:10:08.835Z,48.97
2022-08-17T20:12:38.850Z,46.85
2022-08-17T20:15:17.723Z,46.88
2022-08-17T20:17:46.739Z,51.42
2022-08-17T20:20:34.807Z,47.42
2022-08-17T20:23:12.393Z,48.83
2022-08-17T20:25:47.356Z,46.55
2022-08-17T20:28:29.413Z,43.38
2022-08-17T20:30:56.685Z,50.17
2022-08-17T20:33:36.641Z,47.38
2022-08-17T20:36:19.768Z,49.92
2022-08-17T20:38:55.730Z,48.55
2022-08-17T20:41:23.957Z,46.17
2022-08-17T20:43:56.068Z,50.33
2022-08-17T20:46:37.859Z,51.10
2022-08-17T20:49:08.307Z,50.65
2022-08-17T20:52:00.684Z,48.75
2022-08-17T20:54:51.890Z,53.95
2022-08-17T20:57:47.183Z,51.05
2022-08-17T21:00:41.321Z,50.25
2022-08-17T21:03:23.072Z,53.22
2022-08-17T21:05:59.884Z,53.15
2022-08-17T21:08:33.476Z,55.28
2022-08-17T21:11:20.803Z,49.97
2022-08-17T21:14:19.153Z,50.72
2022-08-17T21:16:58.599Z,49.42
2022-08-17T21:20:08.158Z,49.42
2022-08-17T21:22:45.393Z,57.88
2022-08-17T21:25:24.481Z,52.83
2022-08-17T21:28:13.305Z,50.80
2022-08-17T21:30:39.749Z,47.58
2022-08-17T21:33:20.301Z,47.33
2022-08-17T21:35:59.014Z,50.78
2022-08-17T21:38:43.930Z,49.42
2022-08-17T21:41:20.487Z,47.03
2022-08-17T21:43:50.654Z,55.90
2022-08-17T21:46:36.913Z,48.40
2022-08-17T21:49:13.533Z,47.72
2022-08-17T21:51:45.736Z,50.60
2022-08-17T21:54:38.623Z,47.97
2022-08-17T21:57:14.330Z,46.22
2022-08-17T21:59:42.856Z,54.13
2022-08-17T22:02:16.834Z,47.70
2022-08-17T22:04:43.750Z,49.70
2022-08-17T22:07:14.075Z,54.53
2022-08-17T22:09:45.587Z,47.80
2022-08-17T22:12:17.342Z,51.63
2022-08-17T22:14:56.727Z,48.35
2022-08-17T22:17:36.449Z,52.38
2022-08-17T22:20:14.107Z,47.15
2022-08-17T22:23:05.146Z,50.33
2022-08-17T22:25:35.775Z,51.40
2022-08-17T22:28:05.719Z,53.72
2022-08-17T22:30:35.199Z,56.33
2022-08-17T22:33:32.764Z,52.28
2022-08-17T22:36:14.349Z,49.97
2022-08-17T22:38:43.491Z,56.40
2022-08-17T22:41:34.580Z,58.20
2022-08-17T22:44:31.904Z,55.95
2022-08-17T22:47:02.954Z,60.03
2022-08-17T22:52:32.393Z,62.72
2022-08-17T22:55:34.698Z,59.05
2022-08-17T22:58:20.402Z,61.70
2022-08-17T23:00:48.975Z,64.22
2022-08-17T23:03:24.487Z,64.45
2022-08-17T23:06:11.004Z,64.35
2022-08-17T23:08:54.609Z,61.95
2022-08-17T23:11:42.970Z,64.88
2022-08-17T23:14:19.660Z,62.42
2022-08-17T23:16:47.282Z,63.90
2022-08-17T23:19:16.665Z,67.53
2022-08-17T23:21:46.645Z,68.55
2022-08-17T23:24:22.343Z,62.80
2022-08-17T23:26:48.982Z,65.32
2022-08-17T23:29:15.604Z,66.70
2022-08-17T23:31:42.128Z,63.28
2022-08-17T23:34:13.377Z,65.53
2022-08-17T23:36:40.129Z,62.65
2022-08-17T23:39:07.291Z,72.13
2022-08-17T23:41:38.267Z,72.65
2022-08-17T23:44:06.269Z,75.78
2022-08-17T23:46:33.034Z,73.93
2022-08-17T23:49:00.254Z,70.45
2022-08-17T23:51:31.346Z,76.05
2022-08-17T23:56:37.354Z,76.15
2022-08-17T23:59:03.774Z,81.35
